Search for airport 
image banner adimage banner adimage banner ad
image banner ad

11CN - Shasta Rgnl Medical Center

Located in Redding, United States

ICAO - 11CN, IATA -

Data provided by Airmate  

General information

Coordinates: N40°35'8" W122°23'16"
Elevation is 622 feet MSL.
 
View others Airports in California

Operational data

Special qualification required
Current time UTC:
Current local time:
Weather at : KRDD - Redding Muni ( 12 km )
METAR: KRDD 221153Z AUTO 13006KT 10SM CLR 21/09 A2983 RMK AO2 SLP094 T02110094 10300 20211 55000
TAF: KRDD 221123Z 2212/2312 VRB05KT P6SM FEW250 FM222000 18012KT P6SM FEW250 FM230300 VRB05KT P6SM SKC
View NOTAMs / SUP AIP / TFR affecting this airport [VIEW]
Communications frequencies: [VIEW]

Runways:

Airport contact information

Address: Redding United States

Satellite view of 11CN